MSC Heidi — 3EHC4 — position and weather

sailwx.info

Track history (hours):
 
Tides and Currents Weather Stations Pressure Air Temp Water Temp Dewpoint Dewpoint Depression Visibility Wind Speed Wind Dir Waves Ship Positions

MSC Heidi

Last reported at 2018-May-27 12:56 UTC. Time now 2018-Jun-20 04:08 UTC.
Position N 36°02' W 005°02'.
Warning: this ship's position is 23 days out of date.

Length 332 m; draft 14.2 m.

Type: Ship (hazmat cat D). MMSI: 372008000.

Date/timePositionNaut miles runAvg speedWind from/ knotsBaromVisibWave heightAir tempDewpointWater temp
2018-May-27 12:56N 36°02' W 005°02'921.2
2018-May-27 12:30N 36°01' W 005°13'1020.8
2018-May-27 12:00N 35°58' W 005°26'1019.2
2018-May-27 11:30N 35°55' W 005°37'917.8
2018-May-27 11:00N 35°55' W 005°48'1118.6
2018-May-27 10:24N 35°54' W 006°02'22816.0
2018-May-26 20:12N 38°05' W 009°56'518.4
2018-May-26 19:57N 38°09' W 009°57'818.6
2018-May-26 19:30N 38°17' W 009°59'918.4
2018-May-26 19:00N 38°26' W 010°02'1018.6
2018-May-26 18:29N 38°36' W 010°04'918.4
2018-May-26 18:00N 38°44' W 010°06'918.6
2018-May-26 17:30N 38°53' W 010°06'918.7
2018-May-26 17:00N 39°03' W 010°06'918.6
2018-May-26 16:30N 39°12' W 010°06'918.7
2018-May-26 16:00N 39°21' W 010°06'68118.0
2018-May-25 02:10N 49°44' W 003°37'817.8
2018-May-25 01:44N 49°47' W 003°26'418.1
2018-May-25 01:30N 49°49' W 003°21'918.3
2018-May-25 01:01N 49°54' W 003°08'918.7
2018-May-25 00:30N 49°57' W 002°54'1019.3
2018-May-25 00:00N 49°60' W 002°40'2320.4
2018-May-24 22:52N 50°03' W 002°04'920.4
2018-May-24 22:25N 50°01' W 001°50'921.1
2018-May-24 22:00N 49°57' W 001°39'1121.6
2018-May-24 21:30N 49°54' W 001°23'1121.5
2018-May-24 21:01N 49°50' W 001°08'1020.5
2018-May-24 20:30N 49°45' W 000°53'1019.5
2018-May-24 20:00N 49°41' W 000°40'1019.0
2018-May-24 19:30N 49°37' W 000°26'918.3
2018-May-24 19:00N 49°33' W 000°13'714.6
2018-May-24 18:31N 49°31' W 000°03'714.1
2018-May-24 18:00N 49°28' E 000°07'1 2.1
2018-May-24 17:30N 49°28' E 000°09'0 0.0
2018-May-24 16:59N 49°28' E 000°09'0 0.0
2018-May-24 16:29N 49°28' E 000°09'0 0.0
2018-May-24 15:59N 49°28' E 000°09'0 0.0
2018-May-24 15:29N 49°28' E 000°09'0 0.0
2018-May-24 14:59N 49°28' E 000°09'0 0.0
2018-May-24 14:29N 49°28' E 000°09'0 0.0
2018-May-24 13:59N 49°28' E 000°09'0 0.0
2018-May-24 13:29N 49°28' E 000°09'0 0.0
2018-May-24 08:59N 49°28' E 000°09'0 0.0
2018-May-24 08:26N 49°28' E 000°09'0 0.0
2018-May-24 07:59N 49°28' E 000°09'0 0.0
2018-May-24 07:29N 49°28' E 000°09'0 0.0
2018-May-24 06:59N 49°28' E 000°09'0 0.0
2018-May-24 06:29N 49°28' E 000°09'0 0.0
2018-May-24 05:59N 49°28' E 000°09'0 0.0
2018-May-24 05:26N 49°28' E 000°09'0 0.0
2018-May-24 04:56N 49°28' E 000°09'0 0.0
2018-May-24 04:28N 49°28' E 000°09'0 0.0
2018-May-24 03:58N 49°28' E 000°09'0 0.1
2018-May-24 03:30N 49°28' E 000°09'2 3.2
2018-May-24 03:00N 49°28' E 000°06'713.3
2018-May-24 02:30N 49°31' W 000°03'3 6.7
2018-May-24 02:00N 49°32' W 000°08'3 5.5
2018-May-24 01:30N 49°33' W 000°12'4 7.6
2018-May-24 01:00N 49°36' W 000°12'4 8.0
2018-May-24 00:30N 49°40' W 000°11'4 8.3
2018-May-24 00:00N 49°45' W 000°10'4 8.4
2018-May-23 23:30N 49°49' W 000°09'4 8.3
2018-May-23 23:00N 49°53' W 000°09'4 8.2
2018-May-23 22:30N 49°57' W 000°08'4 8.7
2018-May-23 22:00N 50°01' W 000°08'5 9.2
2018-May-23 21:30N 50°06' W 000°07'5 9.1
2018-May-23 21:00N 50°10' W 000°07'5 9.1
2018-May-23 20:30N 50°15' W 000°07'5 9.6
2018-May-23 19:59N 50°20' W 000°06'510.8
2018-May-23 19:29N 50°25' W 000°03'5 9.7
2018-May-23 19:00N 50°28' E 000°03'510.7
2018-May-23 18:30N 50°30' E 000°10'510.5
2018-May-23 18:00N 50°32' E 000°18'510.1
2018-May-23 17:30N 50°33' E 000°26'5 9.8
2018-May-23 17:00N 50°35' E 000°33'5 9.7
2018-May-23 16:30N 50°38' E 000°39'5 9.9
2018-May-23 16:00N 50°41' E 000°45'510.2
2018-May-23 15:30N 50°45' E 000°51'510.6
2018-May-23 15:00N 50°48' E 000°57'611.3
2018-May-23 14:30N 50°52' E 001°04'1312.5
2018-May-23 13:28N 51°00' E 001°20'613.3
2018-May-23 13:00N 51°04' E 001°27'713.5
2018-May-23 12:30N 51°08' E 001°36'612.2
2018-May-23 12:00N 51°14' E 001°40'611.7
2018-May-23 11:30N 51°19' E 001°43'510.9
2018-May-23 11:00N 51°24' E 001°45'510.4
2018-May-23 10:30N 51°30' E 001°45'510.3
2018-May-23 10:00N 51°35' E 001°45'510.1
2018-May-23 09:30N 51°40' E 001°45'510.0
2018-May-23 09:00N 51°45' E 001°44'5 9.8
2018-May-23 08:30N 51°50' E 001°43'510.3
2018-May-23 08:01N 51°52' E 001°36'612.0
2018-May-23 07:30N 51°56' E 001°29'612.9
2018-May-23 07:00N 51°56' E 001°19'2 4.6
2018-May-23 06:31N 51°58' E 001°17'0 0.0
2018-May-23 06:00N 51°58' E 001°17'0 0.0
2018-May-23 05:31N 51°58' E 001°17'0 0.0
2018-May-23 05:01N 51°58' E 001°17'0 0.0
2018-May-23 04:30N 51°58' E 001°17'0 0.0
2018-May-23 04:00N 51°58' E 001°17'0 0.0
2018-May-23 03:30N 51°58' E 001°17'0 0.0
2018-May-23 03:00N 51°58' E 001°17'0 0.0
2018-May-23 02:30N 51°58' E 001°17'0 0.0
2018-May-23 02:00N 51°58' E 001°17'0 0.0
2018-May-23 01:30N 51°58' E 001°17'0 0.0
2018-May-23 01:00N 51°58' E 001°17'0 0.0
2018-May-23 00:30N 51°58' E 001°17'0 0.0
2018-May-23 00:00N 51°58' E 001°17'0 0.0
2018-May-22 23:30N 51°58' E 001°17'0 0.0
2018-May-22 23:00N 51°58' E 001°17'0 0.0
2018-May-22 22:30N 51°58' E 001°17'0 0.0
2018-May-22 22:00N 51°58' E 001°17'0 0.0
2018-May-22 21:29N 51°58' E 001°17'0 0.0
2018-May-22 20:59N 51°58' E 001°17'0 0.0
2018-May-22 20:29N 51°58' E 001°17'0 0.0
2018-May-22 19:59N 51°58' E 001°17'0 0.0
2018-May-22 19:29N 51°58' E 001°17'0 0.1
2018-May-22 18:59N 51°58' E 001°17'0 0.0
2018-May-22 18:29N 51°58' E 001°17'0 0.0
2018-May-22 17:59N 51°58' E 001°17'0 0.0
2018-May-22 17:29N 51°58' E 001°17'0 0.0
2018-May-22 16:59N 51°58' E 001°17'0 0.0
2018-May-22 16:29N 51°58' E 001°17'0 0.0
2018-May-22 15:59N 51°58' E 001°17'0 0.0
2018-May-22 15:29N 51°58' E 001°17'0 0.0
2018-May-22 14:59N 51°58' E 001°17'0 0.0
2018-May-22 14:29N 51°58' E 001°17'0 0.0
2018-May-22 13:59N 51°58' E 001°17'0 0.0
2018-May-22 13:29N 51°58' E 001°17'0 0.0
2018-May-22 12:59N 51°58' E 001°17'0 0.0
2018-May-22 12:29N 51°58' E 001°17'0 0.0
2018-May-22 11:59N 51°58' E 001°17'0 0.0
2018-May-22 11:29N 51°58' E 001°17'0 0.0
2018-May-22 10:59N 51°58' E 001°17'0 0.0
2018-May-22 10:29N 51°58' E 001°17'0 0.0
2018-May-22 09:59N 51°58' E 001°17'0 0.0
2018-May-22 09:29N 51°58' E 001°17'0 0.1
2018-May-22 08:59N 51°58' E 001°17'0 0.0
2018-May-22 08:29N 51°58' E 001°17'0 0.0
2018-May-22 07:59N 51°58' E 001°17'0 0.0
2018-May-22 07:29N 51°58' E 001°17'0 0.0
2018-May-22 06:59N 51°58' E 001°17'0 0.0
2018-May-22 06:29N 51°58' E 001°17'0 0.0
2018-May-22 05:59N 51°58' E 001°17'0 0.0
2018-May-22 05:29N 51°58' E 001°17'0 0.0
2018-May-22 04:59N 51°58' E 001°17'0 0.0
2018-May-22 04:29N 51°58' E 001°17'0 0.1
2018-May-22 03:59N 51°58' E 001°17'0 0.0
2018-May-22 03:29N 51°58' E 001°17'0 0.0
2018-May-22 02:59N 51°58' E 001°17'0 0.0
2018-May-22 02:29N 51°58' E 001°17'0 0.0
2018-May-22 01:59N 51°58' E 001°17'0 0.0
2018-May-22 01:29N 51°58' E 001°17'0 0.1
2018-May-22 01:00N 51°58' E 001°17'1 1.3
2018-May-22 00:30N 51°57' E 001°18'2 3.8
2018-May-22 00:00N 51°56' E 001°19'613.0
2018-May-21 23:30N 51°56' E 001°29'612.0
2018-May-21 23:00N 51°52' E 001°36'4 7.3
2018-May-21 22:30N 51°52' E 001°41'2 4.1
2018-May-21 22:00N 51°51' E 001°45'3 6.9
2018-May-21 21:30N 51°50' E 001°50'5 9.6
2018-May-21 21:00N 51°45' E 001°50'5 9.8
2018-May-21 20:30N 51°40' E 001°50'611.8
2018-May-21 20:00N 51°35' E 001°53'917.6
2018-May-21 19:30N 51°27' E 001°60'816.7
2018-May-21 19:00N 51°19' E 001°56'918.9
2018-May-21 18:30N 51°11' E 001°46'815.7
2018-May-21 18:00N 51°03' E 001°47'611.7
2018-May-21 17:30N 51°03' E 001°56'815.1
2018-May-21 17:00N 51°03' E 002°08'3 6.7
2018-May-21 16:30N 51°00' E 002°11'0 0.2
2018-May-21 16:00N 51°00' E 002°11'0 0.0
2018-May-21 15:30N 51°00' E 002°11'0 0.0
2018-May-21 14:56N 51°00' E 002°11'0 0.0
2018-May-21 14:20N 51°00' E 002°11'0 0.0
2018-May-21 13:59N 51°00' E 002°11'0 0.0
2018-May-21 13:29N 51°00' E 002°11'0 0.0
2018-May-21 12:59N 51°00' E 002°11'0 0.0
2018-May-21 12:26N 51°00' E 002°11'0 0.0
2018-May-21 11:56N 51°00' E 002°11'0 0.0
2018-May-21 11:26N 51°00' E 002°11'0 0.0
2018-May-21 10:56N 51°00' E 002°11'0 0.0
2018-May-21 10:26N 51°00' E 002°11'0 0.0
2018-May-21 09:44N 51°00' E 002°11'0 0.0
2018-May-21 09:28N 51°00' E 002°11'0 0.0
2018-May-21 08:58N 51°00' E 002°11'0 0.0
2018-May-21 08:28N 51°00' E 002°11'0 0.0
2018-May-21 07:58N 51°00' E 002°11'0 0.0
2018-May-21 07:28N 51°00' E 002°11'0 0.0
2018-May-21 06:58N 51°00' E 002°11'0 0.0
2018-May-21 06:28N 51°00' E 002°11'0 0.0
2018-May-21 05:58N 51°00' E 002°11'0 0.0
2018-May-21 05:28N 51°00' E 002°11'0 0.0
2018-May-21 04:58N 51°00' E 002°11'0 0.0
2018-May-21 04:28N 51°00' E 002°11'0 0.0
2018-May-21 03:58N 51°00' E 002°11'0 0.0
2018-May-21 03:28N 51°00' E 002°11'0 0.0
2018-May-21 02:58N 51°00' E 002°11'0 0.0
2018-May-21 02:28N 51°00' E 002°11'0 0.0
2018-May-21 01:58N 51°00' E 002°11'0 0.0
2018-May-21 01:25N 51°00' E 002°11'0 0.0
2018-May-21 00:52N 51°00' E 002°11'0 0.0
2018-May-21 00:25N 51°00' E 002°11'0 0.0
2018-May-20 23:58N 51°00' E 002°11'0 0.0
2018-May-20 23:17N 51°00' E 002°11'0 1.0
2018-May-20 23:00N 51°01' E 002°11'1 2.6
2018-May-20 22:30N 51°02' E 002°10'4 7.6
2018-May-20 21:59N 51°03' E 002°04'714.3
2018-May-20 21:29N 51°03' E 001°53'3 5.4
2018-May-20 21:00N 51°03' E 001°49'1 2.9
2018-May-20 20:30N 51°03' E 001°46'4 8.3
2018-May-20 20:01N 51°06' E 001°41'815.6
2018-May-20 19:31N 51°13' E 001°46'816.7
2018-May-20 19:00N 51°20' E 001°54'714.0
2018-May-20 18:31N 51°24' E 002°03'917.4
2018-May-20 18:01N 51°20' E 002°16'816.0
2018-May-20 17:31N 51°23' E 002°28'815.9
2018-May-20 17:01N 51°23' E 002°41'612.6
2018-May-20 16:30N 51°25' E 002°51'816.2
2018-May-20 16:00N 51°25' E 003°03'714.9
2018-May-20 15:30N 51°25' E 003°15'814.7
2018-May-20 14:59N 51°25' E 003°28'511.2
2018-May-20 14:30N 51°26' E 003°36'5 9.5
2018-May-20 14:00N 51°24' E 003°43'713.9
2018-May-20 13:30N 51°21' E 003°53'713.4
2018-May-20 13:00N 51°26' E 004°01'612.1
2018-May-20 12:30N 51°23' E 004°09'510.4
2018-May-20 12:00N 51°20' E 004°16'3 6.9
2018-May-20 11:30N 51°17' E 004°15'0 0.0
2018-May-20 10:59N 51°17' E 004°15'0 0.0
2018-May-20 10:26N 51°17' E 004°15'0 0.0
2018-May-20 09:59N 51°17' E 004°15'0 0.0
2018-May-20 09:29N 51°17' E 004°15'0 0.0
2018-May-20 08:59N 51°17' E 004°15'0 0.0
2018-May-20 08:26N 51°17' E 004°15'0 0.0
2018-May-20 07:59N 51°17' E 004°15'0 0.0
2018-May-20 07:29N 51°17' E 004°15'0 0.1
2018-May-20 06:59N 51°17' E 004°15'0 0.0
2018-May-20 06:26N 51°17' E 004°15'0 0.0
2018-May-20 05:59N 51°17' E 004°15'0 0.0
2018-May-20 05:26N 51°17' E 004°15'0 0.0
2018-May-20 04:59N 51°17' E 004°15'0 0.0
2018-May-20 04:29N 51°17' E 004°15'0 0.0
2018-May-20 03:59N 51°17' E 004°15'0 0.0
2018-May-20 03:29N 51°17' E 004°15'0 0.0
2018-May-20 02:59N 51°17' E 004°15'0 0.0
2018-May-20 02:29N 51°17' E 004°15'0 0.0
2018-May-20 01:59N 51°17' E 004°15'0 0.0
2018-May-20 01:23N 51°17' E 004°15'0 0.0
2018-May-20 00:56N 51°17' E 004°15'0 0.0
2018-May-20 00:29N 51°17' E 004°15'0 0.0
2018-May-19 23:59N 51°17' E 004°15'0 0.0
2018-May-19 23:29N 51°17' E 004°15'0 0.0
2018-May-19 22:56N 51°17' E 004°15'0 0.0
2018-May-19 22:26N 51°17' E 004°15'0 0.0
2018-May-19 21:56N 51°17' E 004°15'0 0.0
2018-May-19 21:29N 51°17' E 004°15'0 0.0
2018-May-19 20:59N 51°17' E 004°15'0 0.0
2018-May-19 20:29N 51°17' E 004°15'0 0.0
2018-May-19 19:59N 51°17' E 004°15'0 0.0
2018-May-19 19:29N 51°17' E 004°15'0 0.1
2018-May-19 18:58N 51°17' E 004°15'0 0.0
2018-May-19 18:28N 51°17' E 004°15'0 0.0
2018-May-19 17:58N 51°17' E 004°15'0 0.0
2018-May-19 17:22N 51°17' E 004°15'0 0.0
2018-May-19 16:58N 51°17' E 004°15'0 0.0
2018-May-19 16:28N 51°17' E 004°15'0 0.0
2018-May-19 15:55N 51°17' E 004°15'0 0.0
2018-May-19 15:28N 51°17' E 004°15'0 0.0
2018-May-19 14:58N 51°17' E 004°15'0 0.0
2018-May-19 14:25N 51°17' E 004°15'0 0.0
2018-May-19 13:55N 51°17' E 004°15'0 0.0
2018-May-19 13:25N 51°17' E 004°15'0 0.0
2018-May-19 12:58N 51°17' E 004°15'0 0.0
2018-May-19 12:22N 51°17' E 004°15'0 0.0
2018-May-19 11:58N 51°17' E 004°15'0 0.0
2018-May-19 11:25N 51°17' E 004°15'0 0.0
2018-May-19 10:58N 51°17' E 004°15'0 0.0
2018-May-19 10:28N 51°17' E 004°15'0 0.0
2018-May-19 09:58N 51°17' E 004°15'0 0.0
2018-May-19 09:28N 51°17' E 004°15'0 0.0
2018-May-19 08:58N 51°17' E 004°15'0 0.0
2018-May-19 08:25N 51°17' E 004°15'0 0.0
2018-May-19 07:58N 51°17' E 004°15'0 0.0
2018-May-19 07:28N 51°17' E 004°15'0 0.0
2018-May-19 06:49N 51°17' E 004°15'0 0.0
2018-May-19 06:28N 51°17' E 004°15'0 0.0
2018-May-19 05:58N 51°17' E 004°15'0 0.0
2018-May-19 05:28N 51°17' E 004°15'0 0.0
2018-May-19 04:58N 51°17' E 004°15'0 0.0
2018-May-19 04:28N 51°17' E 004°15'0 0.0
2018-May-19 03:58N 51°17' E 004°15'0 0.1
2018-May-19 03:28N 51°17' E 004°15'0 0.1
2018-May-19 02:58N 51°17' E 004°15'0 0.0
2018-May-19 02:28N 51°17' E 004°15'0 0.0
2018-May-19 01:58N 51°17' E 004°15'0 0.0
2018-May-19 01:28N 51°17' E 004°15'0 0.0
2018-May-19 00:55N 51°17' E 004°15'0 0.0
2018-May-19 00:28N 51°17' E 004°15'0 0.0
2018-May-18 23:58N 51°17' E 004°15'0 0.0
2018-May-18 23:30N 51°17' E 004°15'1 1.5
2018-May-18 23:00N 51°18' E 004°16'1 2.2
2018-May-18 22:30N 51°19' E 004°16'2 5.0
2018-May-18 22:00N 51°21' E 004°15'4 8.6
2018-May-18 21:31N 51°23' E 004°09'5 9.8
2018-May-18 21:01N 51°25' E 004°02'4 7.9
2018-May-18 20:30N 51°23' E 003°56'611.2
2018-May-18 20:01N 51°21' E 003°48'611.7
2018-May-18 19:30N 51°25' E 003°42'5 9.1
2018-May-18 19:00N 51°26' E 003°35'510.2
2018-May-18 18:29N 51°25' E 003°26'815.7
2018-May-18 18:00N 51°25' E 003°14'816.3
2018-May-18 17:30N 51°25' E 003°01'713.4
2018-May-18 17:00N 51°31' E 003°05'815.7
2018-May-18 16:30N 51°38' E 003°11'815.6
2018-May-18 16:01N 51°45' E 003°15'711.6
2018-May-18 15:27N 51°52' E 003°16'2 3.4
2018-May-18 14:59N 51°51' E 003°14'2 4.5
2018-May-18 14:30N 51°50' E 003°16'1 1.0
2018-May-18 13:28N 51°50' E 003°15'1 1.3
2018-May-18 13:00N 51°51' E 003°15'1 1.7
2018-May-18 12:30N 51°51' E 003°15'1 2.1
2018-May-18 12:00N 51°50' E 003°16'916.7
2018-May-18 11:26N 51°59' E 003°20'716.2
2018-May-18 11:00N 52°02' E 003°31'918.6
2018-May-18 10:31N 52°02' E 003°46'612.8
2018-May-18 10:01N 52°02' E 003°56'511.0
2018-May-18 09:30N 51°59' E 004°04'2 3.2
2018-May-18 09:00N 51°58' E 004°04'0 0.1
2018-May-18 08:28N 51°58' E 004°04'0 0.0
2018-May-18 07:58N 51°58' E 004°04'0 0.0
2018-May-18 07:28N 51°58' E 004°04'0 0.0
2018-May-18 06:58N 51°58' E 004°04'0 0.0
2018-May-18 06:28N 51°58' E 004°04'0 0.0
2018-May-18 05:58N 51°58' E 004°04'0 0.0
2018-May-18 05:28N 51°58' E 004°04'0 0.0
2018-May-18 04:58N 51°58' E 004°04'0 0.0
2018-May-18 04:28N 51°58' E 004°04'0 0.0
2018-May-18 03:58N 51°58' E 004°04'0 0.0
2018-May-18 03:28N 51°58' E 004°04'0 0.0
2018-May-18 02:58N 51°58' E 004°04'0 0.0
2018-May-18 02:28N 51°58' E 004°04'0 0.0
2018-May-18 01:58N 51°58' E 004°04'0 0.0
2018-May-18 01:28N 51°58' E 004°04'0 0.0
2018-May-18 00:58N 51°58' E 004°04'0 0.0
2018-May-18 00:28N 51°58' E 004°04'0 0.0
2018-May-17 23:58N 51°58' E 004°04'0 0.0
2018-May-17 23:28N 51°58' E 004°04'0 0.0
2018-May-17 22:58N 51°58' E 004°04'0 0.0
2018-May-17 22:28N 51°58' E 004°04'0 0.0
2018-May-17 21:58N 51°58' E 004°04'0 0.0
2018-May-17 21:28N 51°58' E 004°04'0 0.0
2018-May-17 20:58N 51°58' E 004°04'0 0.0
2018-May-17 20:28N 51°58' E 004°04'0 0.0
2018-May-17 19:58N 51°58' E 004°04'0 0.0
2018-May-17 19:28N 51°58' E 004°04'0 0.0
2018-May-17 18:58N 51°58' E 004°04'0 0.0
2018-May-17 18:28N 51°58' E 004°04'0 0.0
2018-May-17 17:58N 51°58' E 004°04'0 0.0
2018-May-17 17:28N 51°58' E 004°04'0 0.0
2018-May-17 16:58N 51°58' E 004°04'0 0.0
2018-May-17 16:28N 51°58' E 004°04'0 0.0
2018-May-17 15:58N 51°58' E 004°04'0 0.0
2018-May-17 15:28N 51°58' E 004°04'0 0.0
2018-May-17 14:58N 51°58' E 004°04'0 0.0
2018-May-17 14:28N 51°58' E 004°04'0 0.0
2018-May-17 13:58N 51°58' E 004°04'0 0.0
2018-May-17 13:28N 51°58' E 004°04'0 0.0
2018-May-17 12:58N 51°58' E 004°04'  
Track history (hours):
 
Tides and Currents Weather Stations Pressure Air Temp Water Temp Dewpoint Dewpoint Depression Visibility Wind Speed Wind Dir Waves Ship Positions

MSC Heidi

Last reported at 2018-May-27 12:56 UTC. Time now 2018-Jun-20 04:08 UTC.
Position N 36°02' W 005°02'.
Warning: this ship's position is 23 days out of date.

Length 332 m; draft 14.2 m.

Type: Ship (hazmat cat D). MMSI: 372008000.

Date/timePositionNaut miles runAvg speedWind from/ knotsBaromVisibWave heightAir tempDewpointWater temp
2018-May-27 12:56N 36°02' W 005°02'921.2
2018-May-27 12:30N 36°01' W 005°13'1020.8
2018-May-27 12:00N 35°58' W 005°26'1019.2
2018-May-27 11:30N 35°55' W 005°37'917.8
2018-May-27 11:00N 35°55' W 005°48'1118.6
2018-May-27 10:24N 35°54' W 006°02'22816.0
2018-May-26 20:12N 38°05' W 009°56'518.4
2018-May-26 19:57N 38°09' W 009°57'818.6
2018-May-26 19:30N 38°17' W 009°59'918.4
2018-May-26 19:00N 38°26' W 010°02'1018.6
2018-May-26 18:29N 38°36' W 010°04'918.4
2018-May-26 18:00N 38°44' W 010°06'918.6
2018-May-26 17:30N 38°53' W 010°06'918.7
2018-May-26 17:00N 39°03' W 010°06'918.6
2018-May-26 16:30N 39°12' W 010°06'918.7
2018-May-26 16:00N 39°21' W 010°06'68118.0
2018-May-25 02:10N 49°44' W 003°37'817.8
2018-May-25 01:44N 49°47' W 003°26'418.1
2018-May-25 01:30N 49°49' W 003°21'918.3
2018-May-25 01:01N 49°54' W 003°08'918.7
2018-May-25 00:30N 49°57' W 002°54'1019.3
2018-May-25 00:00N 49°60' W 002°40'2320.4
2018-May-24 22:52N 50°03' W 002°04'920.4
2018-May-24 22:25N 50°01' W 001°50'921.1
2018-May-24 22:00N 49°57' W 001°39'1121.6
2018-May-24 21:30N 49°54' W 001°23'1121.5
2018-May-24 21:01N 49°50' W 001°08'1020.5
2018-May-24 20:30N 49°45' W 000°53'1019.5
2018-May-24 20:00N 49°41' W 000°40'1019.0
2018-May-24 19:30N 49°37' W 000°26'918.3
2018-May-24 19:00N 49°33' W 000°13'714.6
2018-May-24 18:31N 49°31' W 000°03'714.1
2018-May-24 18:00N 49°28' E 000°07'1 2.1
2018-May-24 17:30N 49°28' E 000°09'0 0.0
2018-May-24 16:59N 49°28' E 000°09'0 0.0
2018-May-24 16:29N 49°28' E 000°09'0 0.0
2018-May-24 15:59N 49°28' E 000°09'0 0.0
2018-May-24 15:29N 49°28' E 000°09'0 0.0
2018-May-24 14:59N 49°28' E 000°09'0 0.0
2018-May-24 14:29N 49°28' E 000°09'0 0.0
2018-May-24 13:59N 49°28' E 000°09'0 0.0
2018-May-24 13:29N 49°28' E 000°09'0 0.0
2018-May-24 08:59N 49°28' E 000°09'0 0.0
2018-May-24 08:26N 49°28' E 000°09'0 0.0
2018-May-24 07:59N 49°28' E 000°09'0 0.0
2018-May-24 07:29N 49°28' E 000°09'0 0.0
2018-May-24 06:59N 49°28' E 000°09'0 0.0
2018-May-24 06:29N 49°28' E 000°09'0 0.0
2018-May-24 05:59N 49°28' E 000°09'0 0.0
2018-May-24 05:26N 49°28' E 000°09'0 0.0
2018-May-24 04:56N 49°28' E 000°09'0 0.0
2018-May-24 04:28N 49°28' E 000°09'0 0.0
2018-May-24 03:58N 49°28' E 000°09'0 0.1
2018-May-24 03:30N 49°28' E 000°09'2 3.2
2018-May-24 03:00N 49°28' E 000°06'713.3
2018-May-24 02:30N 49°31' W 000°03'3 6.7
2018-May-24 02:00N 49°32' W 000°08'3 5.5
2018-May-24 01:30N 49°33' W 000°12'4 7.6
2018-May-24 01:00N 49°36' W 000°12'4 8.0
2018-May-24 00:30N 49°40' W 000°11'4 8.3
2018-May-24 00:00N 49°45' W 000°10'4 8.4
2018-May-23 23:30N 49°49' W 000°09'4 8.3
2018-May-23 23:00N 49°53' W 000°09'4 8.2
2018-May-23 22:30N 49°57' W 000°08'4 8.7
2018-May-23 22:00N 50°01' W 000°08'5 9.2
2018-May-23 21:30N 50°06' W 000°07'5 9.1
2018-May-23 21:00N 50°10' W 000°07'5 9.1
2018-May-23 20:30N 50°15' W 000°07'5 9.6
2018-May-23 19:59N 50°20' W 000°06'510.8
2018-May-23 19:29N 50°25' W 000°03'5 9.7
2018-May-23 19:00N 50°28' E 000°03'510.7
2018-May-23 18:30N 50°30' E 000°10'510.5
2018-May-23 18:00N 50°32' E 000°18'510.1
2018-May-23 17:30N 50°33' E 000°26'5 9.8
2018-May-23 17:00N 50°35' E 000°33'5 9.7
2018-May-23 16:30N 50°38' E 000°39'5 9.9
2018-May-23 16:00N 50°41' E 000°45'510.2
2018-May-23 15:30N 50°45' E 000°51'510.6
2018-May-23 15:00N 50°48' E 000°57'611.3
2018-May-23 14:30N 50°52' E 001°04'1312.5
2018-May-23 13:28N 51°00' E 001°20'613.3
2018-May-23 13:00N 51°04' E 001°27'713.5
2018-May-23 12:30N 51°08' E 001°36'612.2
2018-May-23 12:00N 51°14' E 001°40'611.7
2018-May-23 11:30N 51°19' E 001°43'510.9
2018-May-23 11:00N 51°24' E 001°45'510.4
2018-May-23 10:30N 51°30' E 001°45'510.3
2018-May-23 10:00N 51°35' E 001°45'510.1
2018-May-23 09:30N 51°40' E 001°45'510.0
2018-May-23 09:00N 51°45' E 001°44'5 9.8
2018-May-23 08:30N 51°50' E 001°43'510.3
2018-May-23 08:01N 51°52' E 001°36'612.0
2018-May-23 07:30N 51°56' E 001°29'612.9
2018-May-23 07:00N 51°56' E 001°19'2 4.6
2018-May-23 06:31N 51°58' E 001°17'0 0.0
2018-May-23 06:00N 51°58' E 001°17'0 0.0
2018-May-23 05:31N 51°58' E 001°17'0 0.0
2018-May-23 05:01N 51°58' E 001°17'0 0.0
2018-May-23 04:30N 51°58' E 001°17'0 0.0
2018-May-23 04:00N 51°58' E 001°17'0 0.0
2018-May-23 03:30N 51°58' E 001°17'0 0.0
2018-May-23 03:00N 51°58' E 001°17'0 0.0
2018-May-23 02:30N 51°58' E 001°17'0 0.0
2018-May-23 02:00N 51°58' E 001°17'0 0.0
2018-May-23 01:30N 51°58' E 001°17'0 0.0
2018-May-23 01:00N 51°58' E 001°17'0 0.0
2018-May-23 00:30N 51°58' E 001°17'0 0.0
2018-May-23 00:00N 51°58' E 001°17'0 0.0
2018-May-22 23:30N 51°58' E 001°17'0 0.0
2018-May-22 23:00N 51°58' E 001°17'0 0.0
2018-May-22 22:30N 51°58' E 001°17'0 0.0
2018-May-22 22:00N 51°58' E 001°17'0 0.0
2018-May-22 21:29N 51°58' E 001°17'0 0.0
2018-May-22 20:59N 51°58' E 001°17'0 0.0
2018-May-22 20:29N 51°58' E 001°17'0 0.0
2018-May-22 19:59N 51°58' E 001°17'0 0.0
2018-May-22 19:29N 51°58' E 001°17'0 0.1
2018-May-22 18:59N 51°58' E 001°17'0 0.0
2018-May-22 18:29N 51°58' E 001°17'0 0.0
2018-May-22 17:59N 51°58' E 001°17'0 0.0
2018-May-22 17:29N 51°58' E 001°17'0 0.0
2018-May-22 16:59N 51°58' E 001°17'0 0.0
2018-May-22 16:29N 51°58' E 001°17'0 0.0
2018-May-22 15:59N 51°58' E 001°17'0 0.0
2018-May-22 15:29N 51°58' E 001°17'0 0.0
2018-May-22 14:59N 51°58' E 001°17'0 0.0
2018-May-22 14:29N 51°58' E 001°17'0 0.0
2018-May-22 13:59N 51°58' E 001°17'0 0.0
2018-May-22 13:29N 51°58' E 001°17'0 0.0
2018-May-22 12:59N 51°58' E 001°17'0 0.0
2018-May-22 12:29N 51°58' E 001°17'0 0.0
2018-May-22 11:59N 51°58' E 001°17'0 0.0
2018-May-22 11:29N 51°58' E 001°17'0 0.0
2018-May-22 10:59N 51°58' E 001°17'0 0.0
2018-May-22 10:29N 51°58' E 001°17'0 0.0
2018-May-22 09:59N 51°58' E 001°17'0 0.0
2018-May-22 09:29N 51°58' E 001°17'0 0.1
2018-May-22 08:59N 51°58' E 001°17'0 0.0
2018-May-22 08:29N 51°58' E 001°17'0 0.0
2018-May-22 07:59N 51°58' E 001°17'0 0.0
2018-May-22 07:29N 51°58' E 001°17'0 0.0
2018-May-22 06:59N 51°58' E 001°17'0 0.0
2018-May-22 06:29N 51°58' E 001°17'0 0.0
2018-May-22 05:59N 51°58' E 001°17'0 0.0
2018-May-22 05:29N 51°58' E 001°17'0 0.0
2018-May-22 04:59N 51°58' E 001°17'0 0.0
2018-May-22 04:29N 51°58' E 001°17'0 0.1
2018-May-22 03:59N 51°58' E 001°17'0 0.0
2018-May-22 03:29N 51°58' E 001°17'0 0.0
2018-May-22 02:59N 51°58' E 001°17'0 0.0
2018-May-22 02:29N 51°58' E 001°17'0 0.0
2018-May-22 01:59N 51°58' E 001°17'0 0.0
2018-May-22 01:29N 51°58' E 001°17'0 0.1
2018-May-22 01:00N 51°58' E 001°17'1 1.3
2018-May-22 00:30N 51°57' E 001°18'2 3.8
2018-May-22 00:00N 51°56' E 001°19'613.0
2018-May-21 23:30N 51°56' E 001°29'612.0
2018-May-21 23:00N 51°52' E 001°36'4 7.3
2018-May-21 22:30N 51°52' E 001°41'2 4.1
2018-May-21 22:00N 51°51' E 001°45'3 6.9
2018-May-21 21:30N 51°50' E 001°50'5 9.6
2018-May-21 21:00N 51°45' E 001°50'5 9.8
2018-May-21 20:30N 51°40' E 001°50'611.8
2018-May-21 20:00N 51°35' E 001°53'917.6
2018-May-21 19:30N 51°27' E 001°60'816.7
2018-May-21 19:00N 51°19' E 001°56'918.9
2018-May-21 18:30N 51°11' E 001°46'815.7
2018-May-21 18:00N 51°03' E 001°47'611.7
2018-May-21 17:30N 51°03' E 001°56'815.1
2018-May-21 17:00N 51°03' E 002°08'3 6.7
2018-May-21 16:30N 51°00' E 002°11'0 0.2
2018-May-21 16:00N 51°00' E 002°11'0 0.0
2018-May-21 15:30N 51°00' E 002°11'0 0.0
2018-May-21 14:56N 51°00' E 002°11'0 0.0
2018-May-21 14:20N 51°00' E 002°11'0 0.0
2018-May-21 13:59N 51°00' E 002°11'0 0.0
2018-May-21 13:29N 51°00' E 002°11'0 0.0
2018-May-21 12:59N 51°00' E 002°11'0 0.0
2018-May-21 12:26N 51°00' E 002°11'0 0.0
2018-May-21 11:56N 51°00' E 002°11'0 0.0
2018-May-21 11:26N 51°00' E 002°11'0 0.0
2018-May-21 10:56N 51°00' E 002°11'0 0.0
2018-May-21 10:26N 51°00' E 002°11'0 0.0
2018-May-21 09:44N 51°00' E 002°11'0 0.0
2018-May-21 09:28N 51°00' E 002°11'0 0.0
2018-May-21 08:58N 51°00' E 002°11'0 0.0
2018-May-21 08:28N 51°00' E 002°11'0 0.0
2018-May-21 07:58N 51°00' E 002°11'0 0.0
2018-May-21 07:28N 51°00' E 002°11'0 0.0
2018-May-21 06:58N 51°00' E 002°11'0 0.0
2018-May-21 06:28N 51°00' E 002°11'0 0.0
2018-May-21 05:58N 51°00' E 002°11'0 0.0
2018-May-21 05:28N 51°00' E 002°11'0 0.0
2018-May-21 04:58N 51°00' E 002°11'0 0.0
2018-May-21 04:28N 51°00' E 002°11'0 0.0
2018-May-21 03:58N 51°00' E 002°11'0 0.0
2018-May-21 03:28N 51°00' E 002°11'0 0.0
2018-May-21 02:58N 51°00' E 002°11'0 0.0
2018-May-21 02:28N 51°00' E 002°11'0 0.0
2018-May-21 01:58N 51°00' E 002°11'0 0.0
2018-May-21 01:25N 51°00' E 002°11'0 0.0
2018-May-21 00:52N 51°00' E 002°11'0 0.0
2018-May-21 00:25N 51°00' E 002°11'0 0.0
2018-May-20 23:58N 51°00' E 002°11'0 0.0
2018-May-20 23:17N 51°00' E 002°11'0 1.0
2018-May-20 23:00N 51°01' E 002°11'1 2.6
2018-May-20 22:30N 51°02' E 002°10'4 7.6
2018-May-20 21:59N 51°03' E 002°04'714.3
2018-May-20 21:29N 51°03' E 001°53'3 5.4
2018-May-20 21:00N 51°03' E 001°49'1 2.9
2018-May-20 20:30N 51°03' E 001°46'4 8.3
2018-May-20 20:01N 51°06' E 001°41'815.6
2018-May-20 19:31N 51°13' E 001°46'816.7
2018-May-20 19:00N 51°20' E 001°54'714.0
2018-May-20 18:31N 51°24' E 002°03'917.4
2018-May-20 18:01N 51°20' E 002°16'816.0
2018-May-20 17:31N 51°23' E 002°28'815.9
2018-May-20 17:01N 51°23' E 002°41'612.6
2018-May-20 16:30N 51°25' E 002°51'816.2
2018-May-20 16:00N 51°25' E 003°03'714.9
2018-May-20 15:30N 51°25' E 003°15'814.7
2018-May-20 14:59N 51°25' E 003°28'511.2
2018-May-20 14:30N 51°26' E 003°36'5 9.5
2018-May-20 14:00N 51°24' E 003°43'713.9
2018-May-20 13:30N 51°21' E 003°53'713.4
2018-May-20 13:00N 51°26' E 004°01'612.1
2018-May-20 12:30N 51°23' E 004°09'510.4
2018-May-20 12:00N 51°20' E 004°16'3 6.9
2018-May-20 11:30N 51°17' E 004°15'0 0.0
2018-May-20 10:59N 51°17' E 004°15'0 0.0
2018-May-20 10:26N 51°17' E 004°15'0 0.0
2018-May-20 09:59N 51°17' E 004°15'0 0.0
2018-May-20 09:29N 51°17' E 004°15'0 0.0
2018-May-20 08:59N 51°17' E 004°15'0 0.0
2018-May-20 08:26N 51°17' E 004°15'0 0.0
2018-May-20 07:59N 51°17' E 004°15'0 0.0
2018-May-20 07:29N 51°17' E 004°15'0 0.1
2018-May-20 06:59N 51°17' E 004°15'0 0.0
2018-May-20 06:26N 51°17' E 004°15'0 0.0
2018-May-20 05:59N 51°17' E 004°15'0 0.0
2018-May-20 05:26N 51°17' E 004°15'0 0.0
2018-May-20 04:59N 51°17' E 004°15'0 0.0
2018-May-20 04:29N 51°17' E 004°15'0 0.0
2018-May-20 03:59N 51°17' E 004°15'0 0.0
2018-May-20 03:29N 51°17' E 004°15'0 0.0
2018-May-20 02:59N 51°17' E 004°15'0 0.0
2018-May-20 02:29N 51°17' E 004°15'0 0.0
2018-May-20 01:59N 51°17' E 004°15'0 0.0
2018-May-20 01:23N 51°17' E 004°15'0 0.0
2018-May-20 00:56N 51°17' E 004°15'0 0.0
2018-May-20 00:29N 51°17' E 004°15'0 0.0
2018-May-19 23:59N 51°17' E 004°15'0 0.0
2018-May-19 23:29N 51°17' E 004°15'0 0.0
2018-May-19 22:56N 51°17' E 004°15'0 0.0
2018-May-19 22:26N 51°17' E 004°15'0 0.0
2018-May-19 21:56N 51°17' E 004°15'0 0.0
2018-May-19 21:29N 51°17' E 004°15'0 0.0
2018-May-19 20:59N 51°17' E 004°15'0 0.0
2018-May-19 20:29N 51°17' E 004°15'0 0.0
2018-May-19 19:59N 51°17' E 004°15'0 0.0
2018-May-19 19:29N 51°17' E 004°15'0 0.1
2018-May-19 18:58N 51°17' E 004°15'0 0.0
2018-May-19 18:28N 51°17' E 004°15'0 0.0
2018-May-19 17:58N 51°17' E 004°15'0 0.0
2018-May-19 17:22N 51°17' E 004°15'0 0.0
2018-May-19 16:58N 51°17' E 004°15'0 0.0
2018-May-19 16:28N 51°17' E 004°15'0 0.0
2018-May-19 15:55N 51°17' E 004°15'0 0.0
2018-May-19 15:28N 51°17' E 004°15'0 0.0
2018-May-19 14:58N 51°17' E 004°15'0 0.0
2018-May-19 14:25N 51°17' E 004°15'0 0.0
2018-May-19 13:55N 51°17' E 004°15'0 0.0
2018-May-19 13:25N 51°17' E 004°15'0 0.0
2018-May-19 12:58N 51°17' E 004°15'0 0.0
2018-May-19 12:22N 51°17' E 004°15'0 0.0
2018-May-19 11:58N 51°17' E 004°15'0 0.0
2018-May-19 11:25N 51°17' E 004°15'0 0.0
2018-May-19 10:58N 51°17' E 004°15'0 0.0
2018-May-19 10:28N 51°17' E 004°15'0 0.0
2018-May-19 09:58N 51°17' E 004°15'0 0.0
2018-May-19 09:28N 51°17' E 004°15'0 0.0
2018-May-19 08:58N 51°17' E 004°15'0 0.0
2018-May-19 08:25N 51°17' E 004°15'0 0.0
2018-May-19 07:58N 51°17' E 004°15'0 0.0
2018-May-19 07:28N 51°17' E 004°15'0 0.0
2018-May-19 06:49N 51°17' E 004°15'0 0.0
2018-May-19 06:28N 51°17' E 004°15'0 0.0
2018-May-19 05:58N 51°17' E 004°15'0 0.0
2018-May-19 05:28N 51°17' E 004°15'0 0.0
2018-May-19 04:58N 51°17' E 004°15'0 0.0
2018-May-19 04:28N 51°17' E 004°15'0 0.0
2018-May-19 03:58N 51°17' E 004°15'0 0.1
2018-May-19 03:28N 51°17' E 004°15'0 0.1
2018-May-19 02:58N 51°17' E 004°15'0 0.0
2018-May-19 02:28N 51°17' E 004°15'0 0.0
2018-May-19 01:58N 51°17' E 004°15'0 0.0
2018-May-19 01:28N 51°17' E 004°15'0 0.0
2018-May-19 00:55N 51°17' E 004°15'0 0.0
2018-May-19 00:28N 51°17' E 004°15'0 0.0
2018-May-18 23:58N 51°17' E 004°15'0 0.0
2018-May-18 23:30N 51°17' E 004°15'1 1.5
2018-May-18 23:00N 51°18' E 004°16'1 2.2
2018-May-18 22:30N 51°19' E 004°16'2 5.0
2018-May-18 22:00N 51°21' E 004°15'4 8.6
2018-May-18 21:31N 51°23' E 004°09'5 9.8
2018-May-18 21:01N 51°25' E 004°02'4 7.9
2018-May-18 20:30N 51°23' E 003°56'611.2
2018-May-18 20:01N 51°21' E 003°48'611.7
2018-May-18 19:30N 51°25' E 003°42'5 9.1
2018-May-18 19:00N 51°26' E 003°35'510.2
2018-May-18 18:29N 51°25' E 003°26'815.7
2018-May-18 18:00N 51°25' E 003°14'816.3
2018-May-18 17:30N 51°25' E 003°01'713.4
2018-May-18 17:00N 51°31' E 003°05'815.7
2018-May-18 16:30N 51°38' E 003°11'815.6
2018-May-18 16:01N 51°45' E 003°15'711.6
2018-May-18 15:27N 51°52' E 003°16'2 3.4
2018-May-18 14:59N 51°51' E 003°14'2 4.5
2018-May-18 14:30N 51°50' E 003°16'1 1.0
2018-May-18 13:28N 51°50' E 003°15'1 1.3
2018-May-18 13:00N 51°51' E 003°15'1 1.7
2018-May-18 12:30N 51°51' E 003°15'1 2.1
2018-May-18 12:00N 51°50' E 003°16'916.7
2018-May-18 11:26N 51°59' E 003°20'716.2
2018-May-18 11:00N 52°02' E 003°31'918.6
2018-May-18 10:31N 52°02' E 003°46'612.8
2018-May-18 10:01N 52°02' E 003°56'511.0
2018-May-18 09:30N 51°59' E 004°04'2 3.2
2018-May-18 09:00N 51°58' E 004°04'0 0.1
2018-May-18 08:28N 51°58' E 004°04'0 0.0
2018-May-18 07:58N 51°58' E 004°04'0 0.0
2018-May-18 07:28N 51°58' E 004°04'0 0.0
2018-May-18 06:58N 51°58' E 004°04'0 0.0
2018-May-18 06:28N 51°58' E 004°04'0 0.0
2018-May-18 05:58N 51°58' E 004°04'0 0.0
2018-May-18 05:28N 51°58' E 004°04'0 0.0
2018-May-18 04:58N 51°58' E 004°04'0 0.0
2018-May-18 04:28N 51°58' E 004°04'0 0.0
2018-May-18 03:58N 51°58' E 004°04'0 0.0
2018-May-18 03:28N 51°58' E 004°04'0 0.0
2018-May-18 02:58N 51°58' E 004°04'0 0.0
2018-May-18 02:28N 51°58' E 004°04'0 0.0
2018-May-18 01:58N 51°58' E 004°04'0 0.0
2018-May-18 01:28N 51°58' E 004°04'0 0.0
2018-May-18 00:58N 51°58' E 004°04'0 0.0
2018-May-18 00:28N 51°58' E 004°04'0 0.0
2018-May-17 23:58N 51°58' E 004°04'0 0.0
2018-May-17 23:28N 51°58' E 004°04'0 0.0
2018-May-17 22:58N 51°58' E 004°04'0 0.0
2018-May-17 22:28N 51°58' E 004°04'0 0.0
2018-May-17 21:58N 51°58' E 004°04'0 0.0
2018-May-17 21:28N 51°58' E 004°04'0 0.0
2018-May-17 20:58N 51°58' E 004°04'0 0.0
2018-May-17 20:28N 51°58' E 004°04'0 0.0
2018-May-17 19:58N 51°58' E 004°04'0 0.0
2018-May-17 19:28N 51°58' E 004°04'0 0.0
2018-May-17 18:58N 51°58' E 004°04'0 0.0
2018-May-17 18:28N 51°58' E 004°04'0 0.0
2018-May-17 17:58N 51°58' E 004°04'0 0.0
2018-May-17 17:28N 51°58' E 004°04'0 0.0
2018-May-17 16:58N 51°58' E 004°04'0 0.0
2018-May-17 16:28N 51°58' E 004°04'0 0.0
2018-May-17 15:58N 51°58' E 004°04'0 0.0
2018-May-17 15:28N 51°58' E 004°04'0 0.0
2018-May-17 14:58N 51°58' E 004°04'0 0.0
2018-May-17 14:28N 51°58' E 004°04'0 0.0
2018-May-17 13:58N 51°58' E 004°04'0 0.0
2018-May-17 13:28N 51°58' E 004°04'0 0.0
2018-May-17 12:58N 51°58' E 004°04'  

Dump ship's entire track history